Agua de Fontanales, Spain

04:07 PM WEST on oktober 22, 2018 (GMT +0100)
Vega de San Mateo | | Change Station

Viš 2733 ft 28.01 °N, 15.53 °W | Updated 17 minutes ago

Delno oblacno
Delno oblacno
65.4 °F
Feels Like 65.4 °F
N
4
Veter Spremenljivo Veter od Sever
Gusts 4.0 mph

Danes
High -- | Low -- °F
--% Chance of Precip.
Yesterday
High -- | Low -- °F
Precip. -- v
Zračni tlak 30.04 v
Vidljivost 6.2 milje
Oblaki Few 1200 ft
Pretezno oblacno 2200 ft
Rosišče 57 °F
Vlažnost 74%
Padavine 0.00 v
Snow Depth Not available.
8:06 AM 7:26 PM
Naraščajoča luna, 95% visible
METAR GCXO 221500Z 15009KT 100V190 9999 FEW012 BKN022 18/16 Q1017 NOSIG
Zračni tlak 30.04 v
Vidljivost 6.2 milje
Oblaki Few 1200 ft
Pretezno oblacno 2200 ft
Rosišče 57 °F
Vlažnost 74%
Padavine 0.00 v
Snow Depth Not available.
8:06 AM 7:26 PM
Naraščajoča luna, 95% visible
METAR GCXO 221500Z 15009KT 100V190 9999 FEW012 BKN022 18/16 Q1017 NOSIG

Get Severe Weather Alerts

Thanks for signing up!

Be on the lookout for a verification email in your inbox.

You'll start receiving the daily forecast at 6 AM.

×

10-Day Weather Forecast

×

Almanac

Astronomija

Oct. 22, 2018 Rise Set
Actual Time
Civil Twilight
Nautical Twilight
Astronomical Twilight
Moon
Length Of Visible Light
Dolžina dneva
Tomorrow will be .
, % of the Moon is Illuminated

Današnji ekstremi

Country Highs Country Lows

Community

WunderPhotos

Category 6

Welcome to Category 6. This is the collective home for Weather Underground's featured writeups by Dr. Jeff Masters (right), Bob Henson (left), Chris Burt, and other regular contributors.

Nearby

Air Quality

  Air Quality AQ Index Pollutant
Not available.

Snow Depth

Station Depth Višina

Earthquake Activity

City Distance Mag. Time & Date
Minimum magnitude displayed is 2.5.

Coastal Water Temperatures

Mesto Temperatura

Stations

Nearby Weather Stations

Station Location Temp Občutek zaradi vetra Rosišče Vlažnost Veter Precip. Viš Obnovljeno Type